CEST,Max TemperatureF,Mean TemperatureF,Min TemperatureF,Max Dew PointF,MeanDew PointF,Min DewpointF,Max Humidity, Mean Humidity, Min Humidity, Max Sea Level PressureIn, Mean Sea Level PressureIn, Min Sea Level PressureIn, Max VisibilityMiles, Mean VisibilityMiles, Min VisibilityMiles, Max Wind SpeedMPH, Mean Wind SpeedMPH, Max Gust SpeedMPH,PrecipitationIn, CloudCover, Events, WindDirDegrees
2013-7-1,81,74,67,62,57,52,69,56,41,30.04,30.00,29.95,19,11,6,14,6,,0.00,1,,183
2013-7-2,81,74,66,63,60,57,83,67,41,30.06,30.02,29.98,19,8,6,13,5,,0.00,1,,143
2013-7-3,81,74,66,67,63,61,88,72,50,30.06,30.04,30.00,16,8,6,15,6,,0.00,1,,133
2013-7-4,80,74,68,68,66,63,94,78,58,30.12,30.08,30.04,6,5,5,13,4,,0.00,2,,129
2013-7-5,84,76,68,66,63,59,94,67,38,30.17,30.14,30.12,16,7,6,9,4,,0.00,2,,145
2013-7-6,83,74,66,63,59,54,83,62,36,30.18,30.15,30.12,19,14,9,12,4,20,0.00,,,155
2013-7-7,83,74,64,64,61,55,88,65,36,30.18,30.13,30.06,19,11,6,10,3,,0.00,1,,151
2013-7-8,87,76,66,57,54,48,64,48,22,30.15,30.10,30.06,19,19,19,12,5,,0.00,,,205
2013-7-9,89,78,67,61,55,52,65,46,22,30.12,30.05,29.98,19,9,6,12,5,,0.00,1,,194
2013-7-10,95,82,69,64,55,45,78,46,14,30.06,29.94,29.83,19,9,6,13,5,,0.00,1,,168
2013-7-11,87,76,66,68,59,54,83,53,32,29.92,29.88,29.83,19,11,6,13,6,,0.00,1,,133
2013-7-12,84,76,68,70,63,52,88,66,26,30.04,29.97,29.92,16,7,6,20,5,,0.00,1,,159
2013-7-13,85,74,64,70,62,54,94,66,28,30.04,30.02,29.98,19,12,7,36,7,,0.00,,,117
2013-7-14,90,77,64,65,58,46,83,57,18,30.05,30.02,29.98,16,10,6,25,5,,0.00,1,,192
2013-7-15,80,74,69,68,66,63,94,76,52,30.14,30.08,30.04,7,6,4,20,5,,0.00,1,,122
2013-7-16,88,77,66,68,62,55,94,63,27,30.12,30.09,30.06,9,6,5,25,5,,0.00,1,,137
2013-7-17,87,77,67,61,56,52,73,48,24,30.12,30.09,30.06,16,11,9,25,7,,0.00,,,172
2013-7-18,87,76,66,68,58,52,78,55,33,30.10,30.05,30.01,16,8,6,12,5,,0.00,1,,150
2013-7-19,87,76,64,66,60,54,73,58,37,30.04,29.97,29.92,16,10,6,12,6,22,0.00,,,192
2013-7-20,88,77,66,65,61,57,78,61,42,29.96,29.94,29.92,19,13,7,13,4,,0.00,,,160
2013-7-21,88,78,69,68,63,59,88,63,35,30.01,29.97,29.92,19,8,6,15,5,,0.00,1,,147
2013-7-22,88,80,71,67,63,57,78,61,39,30.04,30.01,29.95,12,8,6,12,4,,0.00,1,,150
2013-7-23,87,78,68,71,63,55,83,65,40,30.01,29.97,29.92,19,8,6,13,5,,0.00,1,,148
2013-7-24,84,76,69,70,66,61,94,73,53,30.04,30.00,29.98,12,6,4,12,5,,0.00,1,,124
2013-7-25,85,77,69,68,63,57,88,66,40,30.04,29.98,29.89,19,9,6,14,4,,0.00,1,,141
2013-7-26,93,80,68,68,63,55,88,62,26,29.98,29.89,29.79,19,10,6,14,5,16,0.00,1,,209
2013-7-27,93,80,68,63,54,46,78,46,14,29.92,29.85,29.83,19,9,6,15,5,,0.00,1,,282
2013-7-28,93,82,71,55,50,45,57,36,13,30.06,29.97,29.92,19,19,19,17,12,22,0.00,,,286
2013-7-29,90,82,73,61,53,45,65,42,23,30.18,30.13,30.09,19,14,9,18,11,,0.00,,,230
2013-7-30,89,78,66,59,53,45,61,45,14,30.19,30.15,30.12,12,12,12,12,5,,0.00,,,320
2013-7-31,87,78,68,63,57,52,68,52,33,30.15,30.08,30.01,19,16,12,9,4,,0.00,,,183